Time;durP1;ratioP1;P1;durP2;ratioP2;P2;SDS_P1;SDS_P2;PMS_P1;PMS_P2;Temp;Humidity;BMP_temperature;BMP_pressure;BME280_temperature;BME280_humidity;BME280_pressure;Samples;Min_cycle;Max_cycle;Signal;HPM_P1;HPM_P2
2023/01/28 00:01:08;;;;;;;6.90;5.45;;;2.80;99.90;;;;;;4982875;28;20284;-68
2023/01/28 00:03:34;;;;;;;6.57;5.38;;;2.80;99.90;;;;;;4985245;28;21614;-67
2023/01/28 00:06:04;;;;;;;6.25;5.28;;;2.80;99.90;;;;;;4986736;28;20273;-68
2023/01/28 00:08:32;;;;;;;7.13;5.68;;;2.80;99.90;;;;;;4986045;28;20046;-68
2023/01/28 00:11:02;;;;;;;8.57;6.25;;;2.70;99.90;;;;;;4983260;28;20038;-68
2023/01/28 00:13:29;;;;;;;10.85;6.53;;;2.70;99.90;;;;;;4982915;28;20053;-67
2023/01/28 00:15:59;;;;;;;9.45;6.78;;;2.70;99.90;;;;;;4983934;28;20343;-68
2023/01/28 00:18:26;;;;;;;9.27;6.30;;;2.70;99.90;;;;;;4984937;28;20050;-68
2023/01/28 00:21:00;;;;;;;9.00;6.70;;;2.70;99.90;;;;;;4984180;28;20045;-67
2023/01/28 00:23:31;;;;;;;9.25;6.80;;;2.70;99.90;;;;;;4983283;28;20046;-68
2023/01/28 00:25:59;;;;;;;7.60;6.07;;;2.80;99.90;;;;;;4983149;28;20417;-67
2023/01/28 00:28:24;;;;;;;8.52;6.57;;;2.80;99.90;;;;;;4981911;28;20509;-67
2023/01/28 00:30:50;;;;;;;7.60;5.80;;;2.80;99.90;;;;;;4985457;28;20073;-67
2023/01/28 00:33:16;;;;;;;6.93;5.80;;;2.80;99.90;;;;;;4984786;28;20043;-68
2023/01/28 00:35:42;;;;;;;11.43;6.20;;;2.80;99.90;;;;;;4985811;28;20050;-67
2023/01/28 00:38:08;;;;;;;7.53;6.38;;;2.80;99.90;;;;;;4979413;28;20039;-68
2023/01/28 00:40:34;;;;;;;8.43;6.53;;;2.80;99.90;;;;;;4985709;28;20042;-68
2023/01/28 00:43:00;;;;;;;8.50;7.43;;;2.80;99.90;;;;;;4984794;28;20438;-68
2023/01/28 00:45:25;;;;;;;11.00;7.97;;;2.80;99.90;;;;;;4982298;28;20058;-67
2023/01/28 00:47:51;;;;;;;8.07;6.68;;;2.80;99.90;;;;;;4984614;28;20051;-67
2023/01/28 00:50:19;;;;;;;9.90;6.90;;;2.80;99.90;;;;;;4980641;28;20042;-67
2023/01/28 00:52:44;;;;;;;8.15;5.38;;;2.80;99.90;;;;;;4983252;28;20137;-67
2023/01/28 00:55:10;;;;;;;6.95;5.63;;;2.70;99.90;;;;;;4982766;28;20173;-67
2023/01/28 00:57:36;;;;;;;7.68;6.20;;;2.70;99.90;;;;;;4980315;28;20046;-68
2023/01/28 01:00:02;;;;;;;7.97;6.50;;;2.70;99.90;;;;;;4985144;28;20090;-68
2023/01/28 01:02:28;;;;;;;7.00;5.60;;;2.70;99.90;;;;;;4981594;28;20190;-68
2023/01/28 01:05:00;;;;;;;9.20;6.55;;;2.70;99.90;;;;;;4982600;28;20221;-67
2023/01/28 01:07:33;;;;;;;8.18;5.75;;;2.70;99.90;;;;;;4981316;28;20046;-68
2023/01/28 01:10:00;;;;;;;7.03;5.65;;;2.70;99.90;;;;;;4979975;28;20069;-68
2023/01/28 01:12:26;;;;;;;6.90;5.35;;;2.70;99.90;;;;;;4980090;28;20667;-68
2023/01/28 01:14:52;;;;;;;6.72;5.78;;;2.70;99.90;;;;;;4980681;28;20134;-67
2023/01/28 01:17:19;;;;;;;9.00;5.68;;;2.70;99.90;;;;;;4981094;28;20457;-68
2023/01/28 01:19:44;;;;;;;7.60;5.57;;;2.70;99.90;;;;;;4983884;28;20077;-68
2023/01/28 01:22:10;;;;;;;7.65;5.88;;;2.80;99.90;;;;;;4983604;28;20482;-68
2023/01/28 01:24:36;;;;;;;6.80;5.65;;;2.80;99.90;;;;;;4982840;28;20061;-68
2023/01/28 01:27:01;;;;;;;7.13;5.20;;;2.80;99.90;;;;;;4980202;28;20069;-68
2023/01/28 01:29:27;;;;;;;7.45;4.95;;;2.80;99.90;;;;;;4976369;28;20553;-67
2023/01/28 01:31:54;;;;;;;6.63;5.50;;;2.80;99.90;;;;;;4984188;28;20034;-67
2023/01/28 01:34:20;;;;;;;6.55;4.95;;;2.80;99.90;;;;;;4979179;28;20406;-68
2023/01/28 01:36:46;;;;;;;5.50;4.38;;;2.80;99.90;;;;;;4982714;28;20288;-67
2023/01/28 01:39:12;;;;;;;7.28;5.13;;;2.80;99.90;;;;;;4983400;28;20613;-67
2023/01/28 01:41:38;;;;;;;7.38;5.40;;;2.80;99.90;;;;;;4983845;28;20405;-67
2023/01/28 01:44:05;;;;;;;6.95;4.30;;;2.80;99.90;;;;;;4983716;28;20046;-67
2023/01/28 01:46:46;;;;;;;10.30;4.97;;;2.80;99.90;;;;;;4983178;28;20070;-67
2023/01/28 01:49:22;;;;;;;10.82;5.72;;;2.80;99.90;;;;;;4975985;28;20053;-68
2023/01/28 01:51:54;;;;;;;6.43;5.10;;;2.80;99.90;;;;;;4961508;28;20162;-67
2023/01/28 01:54:23;;;;;;;6.80;5.72;;;2.80;99.90;;;;;;4962760;28;20110;-67
2023/01/28 01:56:50;;;;;;;10.63;5.82;;;2.80;99.90;;;;;;4962976;28;20083;-67
2023/01/28 01:59:25;;;;;;;8.95;6.07;;;2.80;99.90;;;;;;4956269;28;20110;-67
2023/01/28 02:01:52;;;;;;;9.27;5.75;;;2.80;99.90;;;;;;4959457;28;20114;-67
2023/01/28 02:04:23;;;;;;;7.50;5.72;;;2.80;99.90;;;;;;4961116;28;20042;-67
2023/01/28 02:06:48;;;;;;;5.93;5.03;;;2.80;99.90;;;;;;4943895;28;20142;-67
2023/01/28 02:09:25;;;;;;;6.53;5.15;;;2.70;99.90;;;;;;4961097;28;20130;-67
2023/01/28 02:11:59;;;;;;;8.43;6.07;;;2.80;99.90;;;;;;4960463;28;20043;-67
2023/01/28 02:14:28;;;;;;;5.85;5.00;;;2.70;99.90;;;;;;4960921;28;20050;-67
2023/01/28 02:16:54;;;;;;;6.95;5.18;;;2.70;99.90;;;;;;4943722;28;21018;-67
2023/01/28 02:19:23;;;;;;;7.38;5.20;;;2.70;99.90;;;;;;4960804;28;20280;-67
2023/01/28 02:22:26;;;;;;;7.03;5.22;;;2.70;99.90;;;;;;4961319;28;20047;-67
2023/01/28 02:25:15;;;;;;;6.28;4.82;;;2.70;99.90;;;;;;4961422;28;20069;-67
2023/01/28 02:28:09;;;;;;;5.60;4.10;;;2.70;99.90;;;;;;4943535;28;20050;-67
2023/01/28 02:30:39;;;;;;;;;;;2.70;99.90;;;;;;4959037;28;20051;-67
2023/01/28 02:33:21;;;;;;;7.68;4.45;;;2.70;99.90;;;;;;4944469;28;20377;-68
2023/01/28 02:35:52;;;;;;;5.80;4.47;;;2.70;99.90;;;;;;4942654;28;20038;-67
2023/01/28 02:38:26;;;;;;;5.50;4.43;;;2.70;99.90;;;;;;4961634;28;20597;-67
2023/01/28 02:41:05;;;;;;;6.30;4.80;;;2.70;99.90;;;;;;4945741;28;20044;-67
2023/01/28 02:43:32;;;;;;;6.00;4.82;;;2.70;99.90;;;;;;4941405;28;20517;-67
2023/01/28 02:48:45;;;;;;;6.25;4.65;;;2.70;99.90;;;;;;4947674;28;20137;-67
2023/01/28 02:51:23;;;;;;;8.13;5.10;;;2.70;99.90;;;;;;4965220;28;20506;-67
2023/01/28 02:54:15;;;;;;;6.90;5.47;;;2.70;99.90;;;;;;4968564;28;20479;-67
2023/01/28 02:56:55;;;;;;;7.10;5.13;;;2.70;99.90;;;;;;4945650;28;20073;-67
2023/01/28 02:59:41;;;;;;;7.03;4.85;;;2.70;99.90;;;;;;4942924;28;20058;-66
2023/01/28 03:02:49;;;;;;;5.50;4.82;;;2.70;99.90;;;;;;4948992;28;20054;-67
2023/01/28 03:05:34;;;;;;;8.25;4.72;;;2.70;99.90;;;;;;4943759;28;20573;-67
2023/01/28 03:09:21;;;;;;;6.07;4.55;;;2.70;99.90;;;;;;4950881;28;20125;-67
2023/01/28 03:38:47;;;;;;;6.75;5.22;;;2.60;99.90;;;;;;4962944;28;20134;-67
2023/01/28 03:41:23;;;;;;;8.90;5.30;;;2.60;99.90;;;;;;4966448;28;20471;-67
2023/01/28 03:43:49;;;;;;;7.75;5.50;;;2.60;99.90;;;;;;4963578;28;20046;-67
2023/01/28 03:46:15;;;;;;;6.93;5.10;;;2.60;99.90;;;;;;4947508;28;20055;-67
2023/01/28 03:48:41;;;;;;;7.47;5.35;;;2.60;99.90;;;;;;4966538;28;20042;-67
2023/01/28 03:51:07;;;;;;;8.90;5.40;;;2.60;99.90;;;;;;4948211;28;20057;-68
2023/01/28 03:53:32;;;;;;;6.63;5.40;;;2.60;99.90;;;;;;4945136;28;20146;-67
2023/01/28 03:55:58;;;;;;;6.78;5.65;;;2.60;99.90;;;;;;4946814;28;20050;-67
2023/01/28 03:58:44;;;;;;;6.63;5.63;;;2.60;99.90;;;;;;4961791;28;20053;-67
2023/01/28 04:01:11;;;;;;;8.63;5.70;;;2.60;99.90;;;;;;4964091;28;20275;-67
2023/01/28 04:03:37;;;;;;;8.43;6.57;;;2.60;99.90;;;;;;4966318;28;20776;-67
2023/01/28 04:06:05;;;;;;;8.18;5.80;;;2.60;99.90;;;;;;4947582;28;20093;-67
2023/01/28 04:08:31;;;;;;;8.23;6.10;;;2.60;99.90;;;;;;4948981;28;20054;-67
2023/01/28 04:10:57;;;;;;;7.90;5.55;;;2.60;99.90;;;;;;4947973;28;21113;-67
2023/01/28 04:13:22;;;;;;;7.95;5.65;;;2.60;99.90;;;;;;4947231;28;20407;-67
2023/01/28 04:15:48;;;;;;;9.15;6.00;;;2.60;99.90;;;;;;4945587;28;20046;-67
2023/01/28 04:18:14;;;;;;;7.55;6.03;;;2.50;99.90;;;;;;4948695;28;20039;-67
2023/01/28 04:20:40;;;;;;;8.75;7.13;;;2.50;99.90;;;;;;4960368;28;20054;-67
2023/01/28 04:23:06;;;;;;;7.25;6.15;;;2.50;99.90;;;;;;4949301;28;20150;-67
2023/01/28 04:25:32;;;;;;;7.72;6.28;;;2.50;99.90;;;;;;4962003;28;20055;-67
2023/01/28 04:27:58;;;;;;;8.55;6.32;;;2.50;99.90;;;;;;4963275;28;20042;-67
2023/01/28 04:30:24;;;;;;;8.88;6.32;;;2.50;99.90;;;;;;4964828;28;20050;-67
2023/01/28 04:32:50;;;;;;;8.45;6.20;;;2.50;99.90;;;;;;4945511;28;20509;-67
2023/01/28 04:35:16;;;;;;;8.52;6.38;;;2.50;99.90;;;;;;4947021;28;20188;-67
2023/01/28 04:37:42;;;;;;;7.30;5.93;;;2.50;99.90;;;;;;4963307;28;20428;-67
2023/01/28 04:40:09;;;;;;;7.57;5.95;;;2.50;99.90;;;;;;4964365;28;20428;-67
2023/01/28 04:42:35;;;;;;;11.82;6.25;;;2.50;99.90;;;;;;4965528;28;20058;-67
2023/01/28 04:45:00;;;;;;;8.20;6.65;;;2.50;99.90;;;;;;4944419;28;20419;-68
2023/01/28 04:47:26;;;;;;;9.38;5.97;;;2.50;99.90;;;;;;4965534;28;20445;-67
2023/01/28 04:49:52;;;;;;;7.82;5.97;;;2.40;99.90;;;;;;4973956;28;20045;-67
2023/01/28 04:52:17;;;;;;;7.85;6.10;;;2.40;99.90;;;;;;4982108;28;20496;-67
2023/01/28 04:54:43;;;;;;;7.60;6.13;;;2.40;99.90;;;;;;4985068;28;20108;-67
2023/01/28 04:57:09;;;;;;;8.18;6.63;;;2.40;99.90;;;;;;4980743;28;20101;-67
2023/01/28 04:59:34;;;;;;;7.63;6.15;;;2.40;99.90;;;;;;4983995;28;20042;-67
2023/01/28 05:02:00;;;;;;;9.07;6.90;;;2.30;99.90;;;;;;4981613;28;20406;-67
2023/01/28 05:04:26;;;;;;;8.40;6.03;;;2.30;99.90;;;;;;4983162;28;20382;-67
2023/01/28 05:06:51;;;;;;;7.80;5.90;;;2.30;99.90;;;;;;4985019;28;20413;-67
2023/01/28 05:09:17;;;;;;;9.38;6.18;;;2.30;99.90;;;;;;4981008;28;20437;-67
2023/01/28 05:11:43;;;;;;;8.38;6.38;;;2.30;99.90;;;;;;4979199;28;20050;-67
2023/01/28 05:14:08;;;;;;;9.13;6.18;;;2.20;99.90;;;;;;4984086;28;20058;-67
2023/01/28 05:16:34;;;;;;;9.23;6.18;;;2.20;99.90;;;;;;4981015;28;20103;-67
2023/01/28 05:19:00;;;;;;;9.63;6.30;;;2.20;99.90;;;;;;4981976;28;20089;-67
2023/01/28 05:21:27;;;;;;;8.48;6.13;;;2.20;99.90;;;;;;4980074;28;20537;-67
2023/01/28 05:23:53;;;;;;;9.68;6.60;;;2.20;99.90;;;;;;4984040;28;20449;-67
2023/01/28 05:26:18;;;;;;;7.78;6.03;;;2.20;99.90;;;;;;4982662;28;20050;-67
2023/01/28 05:28:44;;;;;;;9.45;6.45;;;2.20;99.90;;;;;;4982394;28;20125;-67
2023/01/28 05:31:10;;;;;;;10.27;6.32;;;2.20;99.90;;;;;;4983991;28;20054;-67
2023/01/28 05:33:36;;;;;;;10.95;6.15;;;2.20;99.90;;;;;;4982450;28;20514;-66
2023/01/28 05:36:02;;;;;;;9.07;6.40;;;2.20;99.90;;;;;;4982855;28;20141;-67
2023/01/28 05:38:28;;;;;;;8.43;5.80;;;2.20;99.90;;;;;;4983080;28;20114;-67
2023/01/28 05:40:53;;;;;;;8.10;5.75;;;2.20;99.90;;;;;;4984255;28;20054;-68
2023/01/28 05:43:19;;;;;;;8.98;7.07;;;2.10;99.90;;;;;;4981513;28;20500;-68
2023/01/28 05:45:46;;;;;;;8.57;6.60;;;2.10;99.90;;;;;;4979495;28;20039;-67
2023/01/28 05:48:12;;;;;;;10.73;6.18;;;2.20;99.90;;;;;;4983737;28;20052;-68
2023/01/28 05:50:38;;;;;;;9.02;6.82;;;2.20;99.90;;;;;;4984267;28;20038;-68
2023/01/28 05:53:07;;;;;;;10.20;6.47;;;2.20;99.90;;;;;;4980205;28;20682;-68
2023/01/28 05:55:32;;;;;;;10.27;6.07;;;2.20;99.90;;;;;;4981483;28;20516;-68
2023/01/28 05:57:58;;;;;;;7.22;5.82;;;2.20;99.90;;;;;;4980368;28;20058;-68
2023/01/28 06:00:24;;;;;;;8.25;5.78;;;2.20;99.90;;;;;;4980515;28;20046;-68
2023/01/28 06:02:53;;;;;;;9.85;7.57;;;2.20;99.90;;;;;;4981917;28;20061;-67
2023/01/28 06:05:19;;;;;;;9.63;6.80;;;2.20;99.90;;;;;;4986510;28;20104;-67
2023/01/28 06:07:46;;;;;;;10.02;5.97;;;2.20;99.90;;;;;;4983979;28;20104;-68
2023/01/28 06:10:12;;;;;;;11.60;7.13;;;2.20;99.90;;;;;;4981939;28;20062;-67
2023/01/28 06:12:38;;;;;;;9.20;6.90;;;2.20;99.90;;;;;;4982454;28;20284;-67
2023/01/28 06:15:04;;;;;;;11.75;7.88;;;2.20;99.90;;;;;;4981938;28;20320;-68
2023/01/28 06:17:30;;;;;;;9.98;7.20;;;2.20;99.90;;;;;;4982964;28;20046;-68
2023/01/28 06:19:55;;;;;;;10.30;7.03;;;2.20;99.90;;;;;;4980830;28;20057;-67
2023/01/28 06:22:21;;;;;;;10.85;7.50;;;2.20;99.90;;;;;;4981799;28;20121;-68
2023/01/28 06:24:47;;;;;;;9.65;7.40;;;2.20;99.90;;;;;;4981767;28;20042;-68
2023/01/28 06:27:12;;;;;;;11.68;6.82;;;2.20;99.90;;;;;;4979983;28;20397;-68
2023/01/28 06:29:38;;;;;;;10.45;6.95;;;2.20;99.90;;;;;;4980399;28;20081;-68
2023/01/28 06:32:04;;;;;;;11.88;7.72;;;2.20;99.90;;;;;;4980851;28;20402;-68
2023/01/28 06:34:30;;;;;;;11.50;8.07;;;2.20;99.90;;;;;;4979132;28;20121;-68
2023/01/28 06:36:55;;;;;;;10.38;7.47;;;2.10;99.90;;;;;;4983668;28;20513;-68
2023/01/28 06:39:21;;;;;;;12.07;7.70;;;2.10;99.90;;;;;;4984148;28;20046;-68
2023/01/28 06:41:48;;;;;;;10.48;7.43;;;2.10;99.90;;;;;;4981145;28;20050;-68
2023/01/28 06:44:14;;;;;;;11.50;8.23;;;2.00;99.90;;;;;;4981131;28;20059;-68
2023/01/28 06:46:39;;;;;;;16.77;8.90;;;2.00;99.90;;;;;;4981998;28;20481;-68
2023/01/28 06:49:05;;;;;;;18.05;11.05;;;1.90;99.90;;;;;;4979787;28;20046;-68
2023/01/28 06:51:31;;;;;;;20.23;10.93;;;1.80;99.90;;;;;;4981577;28;20070;-68
2023/01/28 06:53:57;;;;;;;10.68;7.72;;;1.80;99.90;;;;;;4983087;28;20041;-67
2023/01/28 06:56:22;;;;;;;10.23;7.60;;;1.80;99.90;;;;;;4982432;28;20047;-68
2023/01/28 06:58:48;;;;;;;11.00;7.28;;;1.70;99.90;;;;;;4980693;28;20129;-68
2023/01/28 07:01:14;;;;;;;10.70;7.50;;;1.60;99.90;;;;;;4981509;28;20050;-68
2023/01/28 07:03:39;;;;;;;11.93;8.13;;;1.60;99.90;;;;;;4980282;28;20105;-67
2023/01/28 07:06:05;;;;;;;10.25;7.00;;;1.60;99.90;;;;;;4986310;28;20074;-68
2023/01/28 07:08:31;;;;;;;12.60;8.25;;;1.50;99.90;;;;;;4987909;28;20050;-67
2023/01/28 07:10:57;;;;;;;12.48;8.93;;;1.50;99.90;;;;;;4986830;28;20049;-68
2023/01/28 07:13:23;;;;;;;12.77;8.90;;;1.40;99.90;;;;;;4987012;28;20097;-67
2023/01/28 07:15:49;;;;;;;12.32;8.93;;;1.40;99.90;;;;;;4984385;28;20418;-68
2023/01/28 07:18:15;;;;;;;11.50;8.38;;;1.30;99.90;;;;;;4988497;28;20042;-68
2023/01/28 07:20:41;;;;;;;12.77;7.22;;;1.30;99.90;;;;;;4987528;28;20677;-68
2023/01/28 07:23:07;;;;;;;14.32;9.52;;;1.30;99.90;;;;;;4985124;28;20043;-68
2023/01/28 07:25:32;;;;;;;14.43;9.00;;;1.20;99.90;;;;;;4986534;28;20402;-68
2023/01/28 07:27:58;;;;;;;11.77;8.50;;;1.20;99.90;;;;;;4987319;28;20055;-68
2023/01/28 07:30:23;;;;;;;13.82;8.77;;;1.10;99.90;;;;;;4984670;28;20042;-68
2023/01/28 07:32:54;;;;;;;14.57;10.35;;;1.10;99.90;;;;;;4983966;28;20042;-68
2023/01/28 07:35:21;;;;;;;14.43;10.82;;;1.10;99.90;;;;;;4993231;28;20437;-68
2023/01/28 07:38:00;;;;;;;15.05;10.48;;;1.10;99.90;;;;;;4970406;28;20811;-67
2023/01/28 07:40:27;;;;;;;15.93;9.85;;;1.10;99.90;;;;;;4973368;28;20038;-67
2023/01/28 07:42:55;;;;;;;14.02;10.55;;;1.10;99.90;;;;;;4972396;28;20606;-67
2023/01/28 07:45:22;;;;;;;21.83;13.85;;;1.00;99.90;;;;;;4970867;28;20142;-66
2023/01/28 07:48:01;;;;;;;24.63;13.35;;;1.00;99.90;;;;;;4972812;28;20050;-67
2023/01/28 07:50:29;;;;;;;28.67;18.55;;;1.00;99.90;;;;;;4974260;28;20383;-67
2023/01/28 07:52:56;;;;;;;20.20;12.63;;;1.00;99.90;;;;;;4984082;28;20050;-67
2023/01/28 07:55:22;;;;;;;15.10;10.77;;;1.00;99.90;;;;;;4982731;28;20081;-66
2023/01/28 07:57:53;;;;;;;13.38;9.15;;;1.00;99.90;;;;;;4985343;28;20076;-68
2023/01/28 08:00:20;;;;;;;14.30;9.77;;;0.90;99.90;;;;;;4984882;28;20050;-69
2023/01/28 08:02:47;;;;;;;17.50;10.77;;;0.90;99.90;;;;;;4988009;28;20046;-69
2023/01/28 08:05:20;;;;;;;16.35;11.40;;;1.00;99.90;;;;;;4986412;28;20100;-69
2023/01/28 08:07:47;;;;;;;16.52;11.77;;;0.90;99.90;;;;;;4988787;28;20042;-67
2023/01/28 08:10:14;;;;;;;16.23;11.15;;;0.90;99.90;;;;;;4988854;28;20088;-67
2023/01/28 08:12:40;;;;;;;17.45;11.48;;;0.90;99.90;;;;;;4987902;28;20046;-67
2023/01/28 08:15:06;;;;;;;16.45;11.10;;;0.90;99.90;;;;;;4990730;28;20046;-66
2023/01/28 08:17:32;;;;;;;14.52;10.18;;;0.90;99.90;;;;;;4987397;28;20532;-67
2023/01/28 08:19:58;;;;;;;19.08;12.57;;;1.00;99.90;;;;;;4987629;28;20042;-67
2023/01/28 08:22:25;;;;;;;15.40;11.05;;;0.90;99.90;;;;;;4985485;28;20043;-67
2023/01/28 08:24:50;;;;;;;16.70;11.52;;;0.90;99.90;;;;;;4982408;28;20049;-67
2023/01/28 08:27:16;;;;;;;21.92;15.60;;;0.90;99.90;;;;;;4986244;28;20042;-68
2023/01/28 08:29:42;;;;;;;16.38;10.38;;;1.00;99.90;;;;;;4989415;28;20073;-71
2023/01/28 08:32:08;;;;;;;14.30;10.23;;;1.00;99.90;;;;;;4988837;28;20414;-69
2023/01/28 08:34:34;;;;;;;16.45;10.45;;;1.10;99.90;;;;;;4987219;28;20053;-69
2023/01/28 08:37:00;;;;;;;15.88;10.90;;;1.10;99.90;;;;;;4987071;28;20047;-68
2023/01/28 08:39:26;;;;;;;17.98;10.32;;;1.10;99.90;;;;;;4983089;28;20038;-69
2023/01/28 08:41:51;;;;;;;18.23;11.18;;;1.20;99.90;;;;;;4988141;28;20061;-69
2023/01/28 08:44:17;;;;;;;20.30;13.05;;;1.20;99.90;;;;;;4988929;28;20410;-69
2023/01/28 08:46:43;;;;;;;18.58;12.75;;;1.20;99.90;;;;;;4987324;28;20048;-69
2023/01/28 08:49:08;;;;;;;30.52;19.17;;;1.30;99.90;;;;;;4984751;28;20146;-69
2023/01/28 08:51:34;;;;;;;38.40;22.17;;;1.30;99.90;;;;;;4988754;28;20045;-69
2023/01/28 08:54:01;;;;;;;46.70;25.15;;;1.30;99.90;;;;;;4984640;28;20050;-69
2023/01/28 08:56:26;;;;;;;37.80;22.98;;;1.30;99.90;;;;;;4988409;28;20050;-67
2023/01/28 08:58:52;;;;;;;69.72;31.77;;;1.30;99.90;;;;;;4984575;28;20047;-67
2023/01/28 09:01:18;;;;;;;16.67;11.85;;;1.30;99.90;;;;;;4985754;28;20039;-69
2023/01/28 09:03:43;;;;;;;21.77;13.40;;;1.20;99.90;;;;;;4986424;28;20553;-69
2023/01/28 09:06:09;;;;;;;27.15;16.88;;;1.20;99.90;;;;;;4990158;28;20042;-70
2023/01/28 09:08:35;;;;;;;25.75;17.23;;;1.20;99.90;;;;;;4989153;28;20043;-70
2023/01/28 09:11:00;;;;;;;16.05;11.50;;;1.20;99.90;;;;;;4987798;28;20387;-70
2023/01/28 09:13:27;;;;;;;16.50;11.32;;;1.20;99.90;;;;;;4986962;28;20092;-70
2023/01/28 09:15:53;;;;;;;17.27;10.90;;;1.20;99.90;;;;;;4989422;28;20038;-70
2023/01/28 09:18:19;;;;;;;15.80;10.55;;;1.30;99.90;;;;;;4988684;28;20053;-67
2023/01/28 09:20:44;;;;;;;16.15;10.45;;;1.40;99.90;;;;;;4985926;28;20046;-68
2023/01/28 09:23:11;;;;;;;17.40;12.05;;;1.50;99.90;;;;;;4987384;28;20105;-69
2023/01/28 09:25:37;;;;;;;20.58;12.50;;;1.60;99.90;;;;;;4984268;28;20042;-69
2023/01/28 09:28:03;;;;;;;17.02;10.30;;;1.70;99.90;;;;;;4988743;28;20100;-69
2023/01/28 09:30:29;;;;;;;15.32;10.07;;;1.90;99.90;;;;;;4984477;28;20057;-68
2023/01/28 09:32:57;;;;;;;13.43;8.98;;;2.10;99.90;;;;;;4988535;28;20050;-68
2023/01/28 09:35:23;;;;;;;13.80;9.27;;;2.30;99.90;;;;;;4990174;28;20129;-69
2023/01/28 09:37:50;;;;;;;11.60;8.02;;;2.40;99.90;;;;;;4985473;28;20046;-69
2023/01/28 09:40:23;;;;;;;11.18;7.72;;;2.40;99.90;;;;;;4985561;28;20065;-68
2023/01/28 09:43:15;;;;;;;13.97;9.20;;;2.50;99.90;;;;;;4986565;28;20080;-69
2023/01/28 09:45:47;;;;;;;14.23;8.35;;;2.60;99.90;;;;;;4959172;28;20125;-68
2023/01/28 09:48:20;;;;;;;10.80;6.88;;;2.60;99.90;;;;;;4983438;28;20046;-69
2023/01/28 09:50:50;;;;;;;8.32;5.95;;;2.70;99.90;;;;;;4986817;28;20113;-69
2023/01/28 09:53:20;;;;;;;12.27;7.72;;;2.80;99.90;;;;;;4988283;28;20078;-69
2023/01/28 09:55:50;;;;;;;15.32;8.95;;;2.80;99.90;;;;;;4981383;28;20108;-71
2023/01/28 09:58:17;;;;;;;10.88;7.43;;;2.90;99.90;;;;;;4984888;28;20655;-71
2023/01/28 10:01:04;;;;;;;12.10;7.22;;;2.90;99.90;;;;;;4985254;28;20077;-69
2023/01/28 10:03:48;;;;;;;11.85;7.10;;;3.00;99.90;;;;;;4985326;28;20060;-69
2023/01/28 10:06:40;;;;;;;13.18;8.40;;;3.10;99.90;;;;;;4981676;28;20362;-67
2023/01/28 10:09:26;;;;;;;11.77;8.07;;;3.10;99.90;;;;;;4983882;28;20125;-69
2023/01/28 10:12:16;;;;;;;10.25;7.05;;;3.20;99.90;;;;;;4985455;28;20061;-69
2023/01/28 10:15:19;;;;;;;11.57;7.78;;;3.30;99.90;;;;;;4985840;28;20042;-69
2023/01/28 10:17:48;;;;;;;14.13;7.93;;;3.40;99.90;;;;;;4988234;28;20144;-68
2023/01/28 10:20:24;;;;;;;14.32;9.15;;;3.50;99.90;;;;;;4985454;28;20117;-68
2023/01/28 10:23:14;;;;;;;12.18;7.88;;;3.70;99.90;;;;;;4984742;28;20456;-68
2023/01/28 10:25:43;;;;;;;13.15;7.72;;;3.80;99.90;;;;;;4983902;28;20498;-69
2023/01/28 10:28:29;;;;;;;10.88;7.28;;;3.90;99.90;;;;;;4983496;28;20053;-69
2023/01/28 10:30:55;;;;;;;13.55;8.60;;;3.90;99.90;;;;;;4982175;28;20042;-69
2023/01/28 10:33:26;;;;;;;12.85;7.38;;;4.00;99.90;;;;;;4983856;28;20054;-71
2023/01/28 10:35:54;;;;;;;12.80;8.48;;;4.00;99.90;;;;;;4983685;28;20128;-72
2023/01/28 10:38:22;;;;;;;11.50;6.72;;;4.10;99.90;;;;;;4976487;28;20226;-73
2023/01/28 10:40:49;;;;;;;12.57;7.78;;;4.10;99.90;;;;;;4985008;28;20057;-73
2023/01/28 10:43:28;;;;;;;10.70;6.43;;;4.20;99.90;;;;;;4984788;28;20049;-73
2023/01/28 10:46:15;;;;;;;16.40;8.10;;;4.20;99.90;;;;;;4967508;28;20054;-72
2023/01/28 10:48:53;;;;;;;10.10;6.20;;;4.30;99.90;;;;;;4991443;28;20042;-72
2023/01/28 10:51:33;;;;;;;11.70;6.30;;;4.30;99.90;;;;;;4958692;28;20543;-72
2023/01/28 10:53:59;;;;;;;9.68;6.47;;;4.30;99.90;;;;;;4946101;28;20171;-72
2023/01/28 10:56:34;;;;;;;10.80;7.80;;;4.30;99.90;;;;;;4942477;28;20055;-73
2023/01/28 10:59:16;;;;;;;13.75;7.30;;;4.30;99.90;;;;;;4947151;28;20521;-72
2023/01/28 11:02:03;;;;;;;9.88;6.85;;;4.30;99.90;;;;;;4959631;28;20047;-71
2023/01/28 11:04:31;;;;;;;22.27;7.22;;;4.30;99.90;;;;;;4964299;28;20046;-72
2023/01/28 11:07:19;;;;;;;9.90;6.70;;;4.30;99.90;;;;;;4951274;28;20051;-72
2023/01/28 11:09:50;;;;;;;12.32;6.93;;;4.40;99.90;;;;;;4946406;28;20141;-72
2023/01/28 11:12:28;;;;;;;10.32;6.55;;;4.30;99.90;;;;;;4963511;28;20606;-72
2023/01/28 11:15:00;;;;;;;10.10;6.20;;;4.40;99.90;;;;;;4962410;28;20146;-72
2023/01/28 11:17:29;;;;;;;9.60;5.57;;;4.40;99.90;;;;;;4950725;28;20050;-72
2023/01/28 11:20:00;;;;;;;9.20;6.28;;;4.50;99.90;;;;;;4949797;28;20042;-71
2023/01/28 11:22:25;;;;;;;10.13;6.55;;;4.40;99.90;;;;;;4961807;28;20342;-71
2023/01/28 11:24:52;;;;;;;11.88;7.63;;;4.50;99.90;;;;;;4968623;28;20717;-71
2023/01/28 11:27:25;;;;;;;12.88;7.28;;;4.50;99.90;;;;;;4959539;28;20038;-71
2023/01/28 11:29:53;;;;;;;12.13;7.65;;;4.50;99.90;;;;;;4966589;28;21651;-70
2023/01/28 11:32:21;;;;;;;11.35;7.15;;;4.50;99.90;;;;;;4963961;28;20051;-70
2023/01/28 11:34:56;;;;;;;10.93;6.82;;;4.50;99.90;;;;;;4947484;28;20054;-72
2023/01/28 11:37:24;;;;;;;9.85;6.15;;;4.50;99.90;;;;;;4955834;28;20498;-71
2023/01/28 11:40:19;;;;;;;11.43;7.35;;;4.50;99.90;;;;;;4959362;28;20326;-70
2023/01/28 11:42:47;;;;;;;11.77;7.15;;;4.40;99.90;;;;;;4959669;28;20133;-70
2023/01/28 11:45:45;;;;;;;19.85;10.02;;;4.40;99.90;;;;;;4963593;28;20057;-77
2023/01/28 11:48:28;;;;;;;11.57;7.18;;;4.50;99.90;;;;;;4968712;28;20907;-75
2023/01/28 11:50:54;;;;;;;;;;;4.50;99.90;;;;;;4985426;28;20049;-73
2023/01/28 11:53:22;;;;;;;17.00;8.57;;;4.70;99.90;;;;;;4982157;28;20078;-73
2023/01/28 11:56:12;;;;;;;24.73;12.35;;;4.80;99.90;;;;;;4981801;28;20404;-73
2023/01/28 11:59:17;;;;;;;17.55;10.68;;;4.90;99.90;;;;;;4983898;28;20050;-74
2023/01/28 12:02:18;;;;;;;17.25;9.35;;;5.00;99.90;;;;;;4976818;28;20108;-73
2023/01/28 12:04:53;;;;;;;13.57;7.07;;;5.00;99.90;;;;;;4980474;28;20096;-72
2023/01/28 12:07:35;;;;;;;15.82;8.07;;;4.90;99.90;;;;;;4984279;28;20876;-72
2023/01/28 12:10:09;;;;;;;18.73;10.77;;;4.90;99.90;;;;;;4980700;28;20046;-74
2023/01/28 12:12:54;;;;;;;24.90;12.50;;;4.90;99.90;;;;;;4978955;28;20043;-74
2023/01/28 12:15:37;;;;;;;25.08;12.70;;;4.80;99.90;;;;;;4979054;28;20050;-74
2023/01/28 12:18:26;;;;;;;18.95;11.82;;;4.70;99.90;;;;;;4984476;28;20053;-74
2023/01/28 12:21:07;;;;;;;15.32;8.98;;;4.70;99.90;;;;;;4980060;28;20080;-74
2023/01/28 12:23:47;;;;;;;14.93;9.77;;;4.50;99.90;;;;;;4981359;28;20069;-73
2023/01/28 12:26:21;;;;;;;10.90;7.05;;;4.60;99.90;;;;;;4979499;28;20054;-74
2023/01/28 12:29:05;;;;;;;11.68;7.07;;;4.60;99.90;;;;;;4984444;28;20277;-74
2023/01/28 12:31:41;;;;;;;11.30;6.63;;;4.70;99.90;;;;;;4986058;28;20056;-74
2023/01/28 12:34:10;;;;;;;9.77;6.20;;;4.70;99.90;;;;;;4986813;28;20567;-74
2023/01/28 12:36:46;;;;;;;11.43;6.10;;;4.90;99.90;;;;;;4988669;28;20132;-74
2023/01/28 12:39:47;;;;;;;13.48;6.35;;;5.00;99.90;;;;;;4983546;28;20069;-73
2023/01/28 12:42:22;;;;;;;12.20;5.90;;;5.20;99.90;;;;;;4970512;28;20038;-72
2023/01/28 12:44:56;;;;;;;9.23;5.25;;;5.30;99.90;;;;;;4987048;28;20046;-73
2023/01/28 12:47:47;;;;;;;10.05;6.47;;;5.40;99.90;;;;;;4980258;28;20086;-74
2023/01/28 12:50:19;;;;;;;8.73;6.15;;;5.40;99.90;;;;;;4979511;28;20501;-74
2023/01/28 12:52:51;;;;;;;8.50;4.25;;;5.40;99.90;;;;;;4998979;28;20207;-74
2023/01/28 12:55:24;;;;;;;9.32;4.43;;;5.40;99.90;;;;;;4985609;28;20086;-76
2023/01/28 12:57:51;;;;;;;10.60;4.90;;;5.30;99.90;;;;;;4984423;28;20132;-75
2023/01/28 13:00:37;;;;;;;8.27;4.57;;;5.30;99.90;;;;;;4981282;28;20053;-75
2023/01/28 13:03:37;;;;;;;8.90;4.97;;;5.30;99.90;;;;;;4983162;28;20514;-75
2023/01/28 13:06:26;;;;;;;9.00;4.47;;;5.30;99.90;;;;;;4943762;28;20129;-75
2023/01/28 13:08:58;;;;;;;8.70;4.78;;;5.30;99.90;;;;;;4983066;28;20051;-74
2023/01/28 13:11:33;;;;;;;9.32;4.32;;;5.30;99.90;;;;;;4977985;28;20050;-74
2023/01/28 13:13:59;;;;;;;7.65;4.45;;;5.30;99.90;;;;;;4977296;28;20042;-74
2023/01/28 13:16:24;;;;;;;8.95;5.05;;;5.30;99.90;;;;;;4978524;28;20558;-74
2023/01/28 13:18:50;;;;;;;7.90;4.80;;;5.30;99.90;;;;;;4979105;28;20064;-74
2023/01/28 13:21:25;;;;;;;11.55;6.40;;;5.30;99.90;;;;;;4980160;28;20074;-73
2023/01/28 13:24:13;;;;;;;12.02;6.32;;;5.30;99.90;;;;;;4985946;28;20046;-73
2023/01/28 13:26:53;;;;;;;9.25;4.63;;;5.30;99.90;;;;;;4973515;28;20050;-75
2023/01/28 13:29:28;;;;;;;11.02;5.38;;;5.30;99.90;;;;;;4986523;28;20053;-75
2023/01/28 13:31:56;;;;;;;8.10;4.55;;;5.30;99.90;;;;;;4988159;28;20046;-75
2023/01/28 13:34:32;;;;;;;8.18;3.80;;;5.30;99.90;;;;;;4979513;28;20132;-75
2023/01/28 13:37:00;;;;;;;5.88;3.50;;;5.30;99.90;;;;;;4976973;28;20039;-75
2023/01/28 13:39:28;;;;;;;6.80;3.55;;;5.30;99.90;;;;;;4980520;28;20043;-75